Time;durP1;ratioP1;P1;durP2;ratioP2;P2;SDS_P1;SDS_P2;PMS_P1;PMS_P2;Temp;Humidity;BMP_temperature;BMP_pressure;BME280_temperature;BME280_humidity;BME280_pressure;Samples;Min_cycle;Max_cycle;Signal;HPM_P1;HPM_P2
2023/11/13 00:00:47;;;;;;;;;7.67;3.67;;;;;16.62;100.00;100238.75;6221688;22;44828;-88
2023/11/13 00:03:12;;;;;;;;;10.00;7.33;;;;;16.59;100.00;100245.94;6224131;22;44808;-86
2023/11/13 00:05:38;;;;;;;;;9.75;5.00;;;;;16.44;100.00;100219.41;6195771;22;47525;-87
2023/11/13 00:08:06;;;;;;;;;8.75;8.75;;;;;16.56;100.00;100224.53;6222688;22;45377;-88
2023/11/13 00:10:32;;;;;;;;;9.00;9.00;;;;;16.45;100.00;100212.22;6222110;22;45277;-88
2023/11/13 00:12:58;;;;;;;;;12.25;6.00;;;;;16.55;98.53;100222.75;6196279;22;44952;-87
2023/11/13 00:15:23;;;;;;;;;11.00;6.00;;;;;16.39;97.96;100172.97;6222865;22;45392;-86
2023/11/13 00:17:50;;;;;;;;;9.50;4.25;;;;;16.60;97.74;100214.59;6222226;22;44843;-85
2023/11/13 00:20:15;;;;;;;;;7.00;5.25;;;;;16.39;97.18;100198.00;6224177;22;45337;-88
2023/11/13 00:22:41;;;;;;;;;7.75;6.75;;;;;16.30;97.60;100178.47;6222324;22;45337;-86
2023/11/13 00:25:07;;;;;;;;;9.50;7.00;;;;;16.34;97.78;100191.84;6222825;22;45680;-87
2023/11/13 00:27:33;;;;;;;;;7.25;5.75;;;;;16.50;97.65;100207.63;6223858;22;44778;-87
2023/11/13 00:29:59;;;;;;;;;7.00;7.00;;;;;16.33;97.03;100179.31;6220187;22;44993;-88
2023/11/13 00:32:25;;;;;;;;;9.00;3.25;;;;;16.40;95.49;100191.72;6221975;22;45332;-86
2023/11/13 00:34:54;;;;;;;;;10.00;6.50;;;;;16.35;95.92;100181.97;6195522;22;46950;-88
2023/11/13 00:37:19;;;;;;;;;6.50;6.50;;;;;16.26;95.79;100176.78;6220966;22;45389;-87
2023/11/13 00:39:44;;;;;;;;;6.50;5.25;;;;;16.52;95.18;100220.13;6224389;22;45086;-87
2023/11/13 00:42:11;;;;;;;;;6.00;6.00;;;;;16.25;96.49;100196.47;6224023;22;44745;-87
2023/11/13 00:44:37;;;;;;;;;5.75;5.00;;;;;16.49;97.30;100227.34;6198181;22;47627;-87
2023/11/13 00:47:03;;;;;;;;;6.75;6.50;;;;;16.39;97.20;100210.53;6224777;22;44727;-88
2023/11/13 00:50:06;;;;;;;;;8.00;5.00;;;;;16.81;97.61;100221.41;6225717;22;44903;-88
2023/11/13 00:52:31;;;;;;;;;9.50;5.50;;;;;16.43;97.80;100197.94;6197478;22;45586;-86
2023/11/13 00:54:57;;;;;;;;;6.50;5.50;;;;;16.45;98.22;100196.13;6221324;22;46810;-87
2023/11/13 00:57:22;;;;;;;;;10.50;7.50;;;;;16.41;99.07;100195.28;6221646;22;45280;-87
2023/11/13 00:59:48;;;;;;;;;7.50;4.50;;;;;16.33;99.42;100179.31;6193766;22;45259;-86
2023/11/13 01:02:14;;;;;;;;;9.50;5.75;;;;;16.48;99.91;100172.78;6221660;22;44720;-86
2023/11/13 01:04:40;;;;;;;;;9.75;7.00;;;;;16.41;100.00;100187.22;6223617;22;45542;-87
2023/11/13 01:07:06;;;;;;;;;12.33;5.67;;;;;16.27;100.00;100167.81;6224081;22;45297;-87
2023/11/13 01:09:32;;;;;;;;;10.33;7.00;;;;;16.25;100.00;100169.66;6194954;22;45269;-86
2023/11/13 01:11:58;;;;;;;;;3.50;3.50;;;;;16.23;100.00;100171.47;6195932;22;45067;-87
2023/11/13 01:14:24;;;;;;;;;6.00;3.75;;;;;16.33;100.00;100183.81;6223859;22;45399;-86
2023/11/13 01:16:49;;;;;;;;;9.00;6.00;;;;;16.05;100.00;100146.75;6220483;22;44757;-87
2023/11/13 01:19:14;;;;;;;;;8.25;4.00;;;;;16.08;100.00;100127.00;6221931;22;44945;-85
2023/11/13 01:21:40;;;;;;;;;4.00;4.00;;;;;16.06;100.00;100115.44;6194883;22;45641;-87
2023/11/13 01:24:06;;;;;;;;;5.75;4.25;;;;;16.26;100.00;100133.84;6222443;22;45094;-88
2023/11/13 01:26:31;;;;;;;;;10.25;7.00;;;;;16.20;100.00;100114.28;6222711;22;45242;-87
2023/11/13 01:29:04;;;;;;;;;8.67;5.00;;;;;16.08;100.00;100106.47;6222050;22;45473;-86
2023/11/13 01:31:29;;;;;;;;;5.50;4.25;;;;;16.20;100.00;100138.44;6223901;22;45433;-87
2023/11/13 01:33:55;;;;;;;;;7.50;4.25;;;;;16.17;100.00;100138.47;6222205;22;46687;-88
2023/11/13 01:36:20;;;;;;;;;6.00;5.25;;;;;16.08;100.00;100109.16;6220805;22;45329;-87
2023/11/13 01:38:46;;;;;;;;;9.00;5.00;;;;;16.08;100.00;100110.91;6219483;22;44890;-87
2023/11/13 01:41:11;;;;;;;;;11.00;6.25;;;;;16.14;100.00;100130.50;6168329;23;45635;-88
2023/11/13 01:43:37;;;;;;;;;7.75;4.50;;;;;16.15;100.00;100124.19;6163632;23;47413;-87
2023/11/13 01:46:06;;;;;;;;;5.25;3.75;;;;;16.42;100.00;100134.44;6191491;23;45337;-87
2023/11/13 01:48:33;;;;;;;;;4.00;3.50;;;;;16.09;100.00;100089.44;6189429;23;45281;-87
2023/11/13 01:50:59;;;;;;;;;5.75;5.75;;;;;16.31;100.00;100131.97;6165454;23;45227;-87
2023/11/13 01:53:26;;;;;;;;;5.75;4.50;;;;;16.28;100.00;100121.28;6165538;23;47243;-88
2023/11/13 01:55:56;;;;;;;;;5.25;4.50;;;;;16.11;100.00;100089.41;6190646;23;45748;-88
2023/11/13 01:58:22;;;;;;;;;10.00;5.75;;;;;16.22;100.00;100132.13;6166199;23;44756;-88
2023/11/13 02:00:48;;;;;;;;;8.00;4.50;;;;;16.20;100.00;100134.88;6191986;22;45037;-88
2023/11/13 02:03:16;;;;;;;;;10.25;5.75;;;;;16.07;100.00;100118.09;6192161;22;47393;-88
2023/11/13 02:05:44;;;;;;;;;5.25;3.75;;;;;16.26;100.00;100117.75;6193222;22;44786;-88
2023/11/13 02:08:10;;;;;;;;;4.50;3.75;;;;;16.17;100.00;100119.69;6192345;22;44766;-88
2023/11/13 02:10:36;;;;;;;;;10.00;8.00;;;;;16.10;100.00;100101.97;6189883;22;44885;-88
2023/11/13 02:13:04;;;;;;;;;9.00;7.00;;;;;16.38;100.00;100101.41;6187329;23;46964;-87
2023/11/13 02:15:31;;;;;;;;;1.00;1.00;;;;;16.39;100.00;100103.19;6164113;23;44755;-88
2023/11/13 02:18:05;;;;;;;;;3.00;3.00;;;;;16.49;100.00;100104.75;6190945;22;44779;-88
2023/11/13 02:20:31;;;;;;;;;5.25;3.50;;;;;16.33;100.00;100120.28;6190044;22;45302;-88
2023/11/13 02:22:57;;;;;;;;;4.75;1.75;;;;;16.12;100.00;100086.72;6188952;23;47098;-89
2023/11/13 02:25:24;;;;;;;;;1.00;1.00;;;;;16.17;100.00;100068.72;6190051;22;45382;-88
2023/11/13 02:27:53;;;;;;;;;8.00;3.25;;;;;16.18;100.00;100061.56;6189545;23;44833;-88
2023/11/13 02:30:19;;;;;;;;;0.75;0.25;;;;;16.07;100.00;100053.72;6190494;22;45451;-87
2023/11/13 02:32:46;;;;;;;;;2.75;2.75;;;;;16.24;100.00;100069.50;6191595;22;46018;-88
2023/11/13 02:35:13;;;;;;;;;2.00;2.00;;;;;16.03;100.00;100051.13;6188908;23;44977;-88
2023/11/13 02:37:38;;;;;;;;;3.25;2.25;;;;;16.04;100.00;100053.78;6193569;23;44917;-87
2023/11/13 02:40:05;;;;;;;;;3.50;1.75;;;;;16.13;100.00;100048.22;6202182;22;45330;-87
2023/11/13 02:42:34;;;;;;;;;2.50;2.50;;;;;16.23;100.00;100042.69;6221782;22;47114;-88
2023/11/13 02:45:00;;;;;;;;;2.00;2.00;;;;;16.17;100.00;100025.78;6220839;22;45968;-87
2023/11/13 02:47:25;;;;;;;;;4.25;3.25;;;;;16.13;100.00;100004.44;6219882;22;45383;-89
2023/11/13 02:49:52;;;;;;;;;2.25;2.25;;;;;16.38;100.00;100050.41;6222190;22;44934;-87
2023/11/13 02:52:17;;;;;;;;;3.00;3.00;;;;;16.35;100.00;100058.53;6220697;22;44942;-88
2023/11/13 02:54:43;;;;;;;;;4.50;2.75;;;;;16.18;100.00;100027.56;6222387;22;44792;-88
2023/11/13 02:57:08;;;;;;;;;5.75;4.00;;;;;16.22;100.00;100014.09;6222515;22;45426;-88
2023/11/13 02:59:34;;;;;;;;;5.25;4.00;;;;;16.32;100.00;100038.03;6196262;22;44876;-88
2023/11/13 03:01:59;;;;;;;;;3.00;2.75;;;;;16.31;100.00;100035.38;6222060;22;45627;-88
2023/11/13 03:04:24;;;;;;;;;3.33;3.33;;;;;16.21;100.00;100015.88;6194920;22;45294;-88
2023/11/13 03:06:50;;;;;;;;;4.00;4.00;;;;;16.32;100.00;100034.44;6169430;22;45325;-88
2023/11/13 03:09:16;;;;;;;;;3.00;2.50;;;;;16.45;100.00;100049.38;6221479;22;44761;-89
2023/11/13 03:11:41;;;;;;;;;6.67;5.67;;;;;16.48;100.00;100035.00;6220331;22;47243;-88
2023/11/13 03:14:07;;;;;;;;;3.25;3.25;;;;;16.51;100.00;100035.81;6221058;22;44757;-87
2023/11/13 03:16:32;;;;;;;;;5.75;4.75;;;;;16.32;100.00;100003.16;6222691;22;44733;-87
2023/11/13 03:18:58;;;;;;;;;7.50;5.75;;;;;16.44;100.00;100014.50;6195288;22;44750;-88
2023/11/13 03:21:23;;;;;;;;;6.00;2.67;;;;;16.38;100.00;100016.44;6194821;22;48120;-88
2023/11/13 03:27:11;;;;;;;;;3.00;1.00;;;;;16.62;100.00;100008.72;6221184;22;45218;-86
2023/11/13 03:29:37;;;;;;;;;8.50;4.75;;;;;16.73;100.00;100000.44;6194820;22;45135;-89
2023/11/13 03:32:03;;;;;;;;;8.00;4.00;;;;;16.67;100.00;99985.38;6220454;22;47733;-88
2023/11/13 03:34:29;;;;;;;;;6.50;4.00;;;;;16.68;100.00;99991.59;6221508;22;44739;-88
2023/11/13 03:36:56;;;;;;;;;9.75;4.50;;;;;16.87;100.00;99981.38;6193793;22;45219;-87
2023/11/13 03:39:22;;;;;;;;;6.25;5.00;;;;;16.75;100.00;99977.13;6194261;22;44856;-88
2023/11/13 03:41:47;;;;;;;;;6.00;5.50;;;;;16.77;100.00;99967.25;6222292;22;44927;-88
2023/11/13 03:44:12;;;;;;;;;6.00;4.00;;;;;16.79;100.00;99968.09;6219866;22;45343;-88
2023/11/13 03:46:38;;;;;;;;;5.00;5.00;;;;;16.78;100.00;99958.25;6221665;22;44863;-89
2023/11/13 03:49:03;;;;;;;;;8.75;4.75;;;;;16.85;100.00;99953.66;6220009;22;45263;-88
2023/11/13 03:51:29;;;;;;;;;10.50;6.25;;;;;16.91;100.00;99962.44;6220447;22;45412;-87
2023/11/13 03:53:55;;;;;;;;;10.50;9.75;;;;;16.92;100.00;99958.81;6194873;22;44849;-88
2023/11/13 03:56:22;;;;;;;;;10.00;5.00;;;;;17.02;100.00;99955.94;6220482;22;45750;-88
2023/11/13 03:58:47;;;;;;;;;5.75;5.75;;;;;16.97;100.00;99956.06;6193528;22;45345;-87
2023/11/13 04:02:05;;;;;;;;;8.50;7.00;;;;;17.30;100.00;99956.09;6220960;22;45261;-88
2023/11/13 04:04:31;;;;;;;;;7.00;5.00;;;;;16.95;100.00;99947.16;6221405;22;45345;-87
2023/11/13 04:06:56;;;;;;;;;10.00;6.75;;;;;17.00;100.00;99939.84;6220270;22;45160;-88
2023/11/13 04:09:21;;;;;;;;;7.25;4.75;;;;;17.05;100.00;99942.41;6193096;22;45314;-87
2023/11/13 04:11:47;;;;;;;;;4.50;4.50;;;;;17.04;100.00;99935.28;6193557;22;47157;-88
2023/11/13 04:14:12;;;;;;;;;12.75;4.50;;;;;17.10;100.00;99937.81;6193505;22;45522;-87
2023/11/13 04:16:38;;;;;;;;;10.50;6.25;;;;;17.13;100.00;99937.75;6192767;22;45480;-88
2023/11/13 04:19:04;;;;;;;;;11.50;6.00;;;;;17.16;100.00;99940.34;6192751;22;44837;-88
2023/11/13 04:21:32;;;;;;;;;10.25;6.75;;;;;17.18;100.00;99938.50;6193088;22;47028;-88
2023/11/13 04:24:01;;;;;;;;;10.25;6.00;;;;;17.40;100.00;99934.31;6219831;22;45297;-88
2023/11/13 04:26:28;;;;;;;;;7.25;6.75;;;;;17.37;100.00;99926.34;6221197;22;45337;-89
2023/11/13 04:28:53;;;;;;;;;5.50;5.50;;;;;17.26;100.00;99914.97;6221073;22;44822;-88
2023/11/13 04:31:20;;;;;;;;;5.50;4.25;;;;;17.35;100.00;99909.38;6222066;22;47073;-88
2023/11/13 04:33:48;;;;;;;;;6.75;6.00;;;;;17.34;100.00;99914.78;6221233;22;45508;-88
2023/11/13 04:36:13;;;;;;;;;5.00;4.00;;;;;17.33;100.00;99915.69;6195873;22;44903;-88
2023/11/13 04:38:40;;;;;;;;;5.00;4.50;;;;;17.39;100.00;99894.94;6222584;22;45353;-87
2023/11/13 04:41:08;;;;;;;;;8.50;5.00;;;;;17.43;100.00;99901.13;6221228;22;45402;-87
2023/11/13 04:43:33;;;;;;;;;5.00;5.00;;;;;17.45;100.00;99898.34;6222560;22;45417;-89
2023/11/13 04:45:58;;;;;;;;;7.00;5.50;;;;;17.44;100.00;99878.66;6220800;22;45372;-87
2023/11/13 04:48:24;;;;;;;;;6.00;3.25;;;;;17.51;100.00;99898.19;6223303;22;44805;-87
2023/11/13 04:50:50;;;;;;;;;4.75;3.75;;;;;17.49;100.00;99897.34;6222965;22;45078;-88
2023/11/13 04:53:16;;;;;;;;;8.75;3.75;;;;;17.52;100.00;99903.53;6195120;22;44810;-88
2023/11/13 04:55:48;;;;;;;;;8.25;5.50;;;;;17.82;100.00;99914.34;6194421;22;44900;-88
2023/11/13 04:58:13;;;;;;;;;5.00;5.00;;;;;17.59;100.00;99907.81;6195103;22;45458;-88
2023/11/13 05:00:39;;;;;;;;;3.75;3.75;;;;;17.57;100.00;99898.00;6218340;22;46623;-89
2023/11/13 05:03:05;;;;;;;;;7.00;5.67;;;;;17.74;100.00;99908.31;6219724;22;45401;-88
2023/11/13 05:05:32;;;;;;;;;6.50;5.25;;;;;17.67;100.00;99891.44;6223201;22;44804;-88
2023/11/13 05:07:59;;;;;;;;;4.00;4.00;;;;;17.75;100.00;99892.13;6195959;22;45187;-89
2023/11/13 05:10:24;;;;;;;;;6.75;4.75;;;;;17.68;100.00;99877.09;6195035;22;47300;-89
2023/11/13 05:12:50;;;;;;;;;6.00;4.00;;;;;17.67;100.00;99869.94;6194389;22;45257;-89
2023/11/13 05:15:15;;;;;;;;;5.33;5.33;;;;;17.70;100.00;99852.84;6221353;22;44777;-88
2023/11/13 05:17:42;;;;;;;;;2.50;2.50;;;;;17.71;100.00;99858.16;6194582;22;44785;-88
2023/11/13 05:20:08;;;;;;;;;7.00;5.00;;;;;17.74;100.00;99863.47;6194812;22;47344;-88
2023/11/13 05:22:33;;;;;;;;;5.00;4.00;;;;;17.72;100.00;99854.56;6222446;22;45170;-88
2023/11/13 05:24:59;;;;;;;;;5.50;2.50;;;;;17.72;100.00;99845.63;6193508;22;44849;-88
2023/11/13 05:27:25;;;;;;;;;3.00;2.75;;;;;17.79;100.00;99856.16;6222992;22;44748;-88
2023/11/13 05:29:51;;;;;;;;;9.50;5.50;;;;;17.83;100.00;99854.25;6219426;22;48212;-87
2023/11/13 05:32:17;;;;;;;;;5.00;4.25;;;;;17.76;100.00;99853.53;6222527;22;45239;-88
2023/11/13 05:38:04;;;;;;;;;6.00;5.00;;;;;17.89;100.00;99864.84;6223173;22;44722;-88
2023/11/13 05:40:30;;;;;;;;;3.50;3.50;;;;;17.90;100.00;99860.38;6218578;22;45419;-87
2023/11/13 05:42:55;;;;;;;;;7.33;6.67;;;;;17.87;100.00;99857.75;6222919;22;45492;-88
2023/11/13 05:45:21;;;;;;;;;6.00;6.00;;;;;17.87;100.00;99864.00;6223884;22;44773;-87
2023/11/13 05:47:47;;;;;;;;;7.67;7.67;;;;;18.04;100.00;99859.91;6219864;22;44746;-87
2023/11/13 05:50:13;;;;;;;;;4.75;4.75;;;;;17.91;100.00;99872.88;6221060;22;44931;-88
2023/11/13 05:52:38;;;;;;;;;6.00;4.75;;;;;17.98;100.00;99869.06;6222178;22;44831;-87
2023/11/13 05:55:04;;;;;;;;;6.67;3.67;;;;;18.05;100.00;99865.25;6221885;22;45070;-87
2023/11/13 05:57:29;;;;;;;;;4.50;4.50;;;;;18.04;100.00;99876.06;6219701;22;45476;-87
2023/11/13 05:59:55;;;;;;;;;6.25;6.00;;;;;18.11;100.00;99877.66;6220079;22;46971;-88
2023/11/13 06:02:21;;;;;;;;;9.00;8.67;;;;;18.10;100.00;99871.41;6221853;22;44691;-87
2023/11/13 06:04:53;;;;;;;;;5.75;4.00;;;;;17.94;100.00;99853.97;6221792;22;44818;-87
2023/11/13 06:07:19;;;;;;;;;5.00;5.00;;;;;17.98;100.00;99859.19;6223483;22;45680;-87
2023/11/13 06:09:45;;;;;;;;;9.25;5.00;;;;;17.97;100.00;99845.78;6223358;22;45531;-88
2023/11/13 06:12:10;;;;;;;;;4.50;4.50;;;;;18.03;100.00;99852.78;6221840;22;45321;-88
2023/11/13 06:14:38;;;;;;;;;5.00;5.00;;;;;17.96;100.00;99834.16;6222133;22;44825;-88
2023/11/13 06:17:05;;;;;;;;;4.75;4.75;;;;;18.12;100.00;99829.16;6220758;22;45341;-87
2023/11/13 06:19:31;;;;;;;;;6.75;5.25;;;;;18.05;100.00;99813.25;6222511;22;45420;-88
2023/11/13 06:21:56;;;;;;;;;5.75;5.00;;;;;18.10;100.00;99805.94;6196114;22;44744;-88
2023/11/13 06:24:22;;;;;;;;;4.75;4.00;;;;;18.02;100.00;99776.56;6193837;22;45297;-87
2023/11/13 06:26:48;;;;;;;;;7.00;5.50;;;;;18.03;100.00;99770.25;6222310;22;45203;-87
2023/11/13 06:29:18;;;;;;;;;7.00;4.50;;;;;18.37;100.00;99794.25;6220957;22;46097;-88
2023/11/13 06:31:45;;;;;;;;;6.50;4.75;;;;;18.09;100.00;99783.50;6220189;22;44739;-88
2023/11/13 06:34:11;;;;;;;;;8.00;8.00;;;;;18.21;100.00;99814.53;6219089;22;45370;-88
2023/11/13 06:36:46;;;;;;;;;4.25;4.25;;;;;18.46;100.00;99822.69;6193845;22;45308;-91
2023/11/13 06:39:15;;;;;;;;;3.75;3.75;;;;;18.42;100.00;99802.19;6225214;22;45389;-88
2023/11/13 06:41:50;;;;;;;;;7.50;6.50;;;;;18.51;100.00;99823.41;6227240;22;44739;-87
2023/11/13 06:46:48;;;;;;;;;6.75;3.75;;;;;18.38;100.00;99830.16;6231477;22;44756;-89
2023/11/13 06:49:14;;;;;;;;;5.00;4.00;;;;;18.45;100.00;99844.28;6226223;22;47205;-89
2023/11/13 06:51:39;;;;;;;;;6.25;6.25;;;;;18.37;100.00;99841.84;6204537;22;44989;-88
2023/11/13 06:54:07;;;;;;;;;4.25;4.00;;;;;18.42;100.00;99841.69;6202103;22;45393;-87
2023/11/13 06:56:33;;;;;;;;;4.25;4.25;;;;;18.44;100.00;99851.50;6196364;22;45407;-89
2023/11/13 06:58:59;;;;;;;;;4.50;4.50;;;;;18.55;100.00;99868.16;6221523;22;47526;-88
2023/11/13 07:01:28;;;;;;;;;6.75;6.75;;;;;18.70;100.00;99853.28;6195527;22;45421;-88
2023/11/13 07:03:56;;;;;;;;;8.00;6.75;;;;;18.44;100.00;99837.13;6198593;22;45302;-88
2023/11/13 07:06:24;;;;;;;;;3.00;3.00;;;;;18.49;100.00;99845.94;6193810;22;44932;-87
2023/11/13 07:08:50;;;;;;;;;4.50;4.25;;;;;18.67;100.00;99844.47;6220440;22;45125;-87
2023/11/13 07:11:22;;;;;;;;;5.00;5.00;;;;;18.68;100.00;99844.38;6194346;22;45275;-88
2023/11/13 07:13:48;;;;;;;;;4.25;4.00;;;;;18.53;100.00;99837.72;6222835;22;45405;-88
2023/11/13 07:16:14;;;;;;;;;4.75;3.00;;;;;18.60;100.00;99841.06;6197997;22;45393;-90
2023/11/13 07:18:39;;;;;;;;;4.00;3.50;;;;;18.61;100.00;99844.66;6174065;22;47259;-88
2023/11/13 07:24:27;;;;;;;;;2.50;2.50;;;;;18.64;100.00;99840.03;6222661;22;45506;-89
2023/11/13 07:26:56;;;;;;;;;4.00;4.00;;;;;18.87;100.00;99852.78;6224365;22;44855;-89
2023/11/13 07:29:21;;;;;;;;;4.75;3.50;;;;;18.65;100.00;99839.13;6196351;22;47278;-88
2023/11/13 07:31:47;;;;;;;;;3.50;3.00;;;;;18.63;100.00;99830.22;6197680;22;45290;-88
2023/11/13 07:34:12;;;;;;;;;7.00;4.25;;;;;18.62;100.00;99835.63;6197749;22;45274;-89
2023/11/13 07:36:38;;;;;;;;;4.00;4.00;;;;;18.62;100.00;99847.28;6199195;22;45348;-88
2023/11/13 07:39:03;;;;;;;;;3.75;3.25;;;;;18.62;100.00;99841.03;6176302;22;45816;-88
2023/11/13 07:41:33;;;;;;;;;6.50;4.00;;;;;18.59;100.00;99842.88;6226341;22;44788;-89
2023/11/13 07:44:01;;;;;;;;;3.00;3.00;;;;;18.74;100.00;99852.28;6229149;22;44782;-89
2023/11/13 07:46:34;;;;;;;;;3.00;2.75;;;;;18.57;100.00;99852.81;6195065;23;44844;-88
2023/11/13 07:49:03;;;;;;;;;6.50;6.50;;;;;18.34;100.00;99820.38;6195785;22;45052;-87
2023/11/13 07:51:32;;;;;;;;;2.50;2.00;;;;;18.53;100.00;99861.94;6195412;22;44690;-88
2023/11/13 07:54:01;;;;;;;;;4.00;4.00;;;;;18.32;100.00;99830.31;6171305;22;45218;-88
2023/11/13 07:56:36;;;;;;;;;4.00;2.50;;;;;18.67;100.00;99850.72;6194050;22;45181;-88
2023/11/13 07:59:16;;;;;;;;;2.00;2.00;;;;;18.60;100.00;99835.69;6197265;22;45415;-85
2023/11/13 08:11:44;;;;;;;;;6.75;5.00;;;;;18.42;100.00;99807.59;6071891;23;45510;-88
2023/11/13 08:14:46;;;;;;;;;2.00;1.75;;;;;18.82;100.00;99832.31;6069404;23;45292;-89
2023/11/13 08:24:12;;;;;;;;;1.75;1.75;;;;;18.53;100.00;99799.13;6070158;23;44942;-89
2023/11/13 08:26:43;;;;;;;;;2.00;2.00;;;;;18.83;100.00;99818.78;6072353;23;45008;-87
2023/11/13 08:29:15;;;;;;;;;3.50;3.50;;;;;18.75;100.00;99815.44;6049149;23;44857;-88
2023/11/13 08:31:45;;;;;;;;;3.75;3.00;;;;;18.82;100.00;99800.84;6027613;23;44848;-88
2023/11/13 08:34:15;;;;;;;;;1.75;1.75;;;;;18.77;100.00;99811.75;6055278;23;46904;-88
2023/11/13 08:39:39;;;;;;;;;5.00;3.50;;;;;18.83;100.00;99813.41;6034745;23;44886;-90
2023/11/13 08:42:06;;;;;;;;;3.50;3.50;;;;;18.77;100.00;99798.28;6029036;23;44906;-88
2023/11/13 08:44:40;;;;;;;;;2.00;2.00;;;;;19.01;100.00;99774.16;6089010;23;46671;-89
2023/11/13 08:47:06;;;;;;;;;0.50;0.00;;;;;18.92;100.00;99783.41;6095510;23;44908;-89
2023/11/13 08:49:42;;;;;;;;;1.00;1.00;;;;;19.24;100.00;99780.50;6199104;23;44765;-88
2023/11/13 08:52:08;;;;;;;;;2.00;2.00;;;;;19.11;100.00;99786.34;6171347;23;44839;-89
2023/11/13 08:54:35;;;;;;;;;1.00;1.00;;;;;19.28;100.00;99766.84;6120882;23;45148;-88
2023/11/13 08:57:29;;;;;;;;;3.25;2.00;;;;;19.19;100.00;99778.88;6193747;23;45238;-89
2023/11/13 08:59:55;;;;;;;;;2.00;2.00;;;;;19.31;100.00;99785.63;6137623;23;44824;-86
2023/11/13 09:03:18;;;;;;;;;3.00;3.00;;;;;19.53;100.00;99765.91;6169471;23;45619;-89
2023/11/13 09:05:53;;;;;;;;;2.50;1.50;;;;;19.42;100.00;99768.16;6045105;23;47305;-88
2023/11/13 09:08:24;;;;;;;;;2.25;2.25;;;;;19.63;100.00;99777.22;6052071;23;45494;-87
2023/11/13 09:11:46;;;;;;;;;2.00;2.00;;;;;19.99;100.00;99818.13;6053696;23;45355;-87
2023/11/13 09:14:24;;;;;;;;;2.00;2.00;;;;;19.74;100.00;99781.31;6077610;23;44863;-87
2023/11/13 09:18:30;;;;;;;;;3.00;2.00;;;;;19.99;100.00;99797.41;6074750;23;46943;-90
2023/11/13 09:21:59;;;;;;;;;;;;;;;;;;;;;
2023/11/13 09:28:18;;;;;;;;;2.00;2.00;;;;;19.86;100.00;99762.91;5964333;23;44817;-89
2023/11/13 09:31:04;;;;;;;;;3.50;3.50;;;;;20.05;100.00;99780.09;5961770;23;47273;-89
2023/11/13 09:33:52;;;;;;;;;0.00;0.00;;;;;19.74;100.00;99748.94;5939731;23;44889;-89
2023/11/13 09:36:24;;;;;;;;;1.00;1.00;;;;;19.75;100.00;99749.81;5964501;23;45117;-91
2023/11/13 09:39:42;;;;;;;;;1.25;1.25;;;;;20.05;100.00;99779.22;5963853;23;45312;-88
2023/11/13 09:43:06;;;;;;;;;0.75;0.75;;;;;20.05;100.00;99784.63;5933249;23;47234;-89
2023/11/13 12:22:56;;;;;;;;;2.75;2.25;;;;;20.58;100.00;99671.69;6210494;22;46093;-80
2023/11/13 13:51:24;;;;;;;;;0.00;0.00;;;;;21.19;100.00;99672.53;6116784;22;46959;31
2023/11/13 15:13:01;;;;;;;;;0.00;0.00;;;;;21.13;95.83;99746.69;6145179;22;46332;-83
2023/11/13 17:08:00;;;;;;;;;1.75;1.75;;;;;18.16;99.85;99984.22;6164040;22;46571;-83
2023/11/13 17:10:41;;;;;;;;;1.00;1.00;;;;;18.22;98.50;100006.50;6211839;23;44662;-87
2023/11/13 17:13:10;;;;;;;;;1.00;1.00;;;;;17.79;98.67;99974.50;6211794;23;44650;-87
2023/11/13 17:16:07;;;;;;;;;2.50;2.50;;;;;17.77;98.20;99976.34;6210813;23;44773;-87
2023/11/13 17:36:42;;;;;;;;;3.00;3.00;;;;;17.92;97.30;100054.88;6149348;22;46413;-85
2023/11/13 17:47:01;;;;;;;;;4.75;3.25;;;;;17.72;97.16;100021.28;6117178;22;46685;-87
2023/11/13 18:04:59;;;;;;;;;1.50;1.50;;;;;17.78;95.24;100066.84;6264876;22;44887;-86
2023/11/13 19:33:02;;;;;;;;;6.25;5.00;;;;;17.64;91.36;100141.63;6113294;22;46173;-85
